NKS1280 TJSJ-KFLL
Flight info
| Callsign | NKS1280 |
|---|---|
| Flight time | N/A |
| Altitude | 34000 |
| Route | ACONY3 SAPPO Y399 ZQA OLAHS3 |
| Aircraft | A321/M-SDE3FGHIRWY/LB1 |
Departure
| Time | N/A |
|---|---|
| Airport | Luis Munoz Marin International Airport (TJSJ) |
Arrival
| Time | 2026-05-03 21:45 |
|---|---|
| Airport | Fort Lauderdale Hollywood International Airport (KFLL) |
| Time | Latitude | Longitude | Altitude | Speed | Heading |
|---|---|---|---|---|---|
| 2026-05-03 20:15 | 22.28728 | -71.85324 | 34057 ft | 450 kts | 297° |
| 2026-05-03 20:15 | 22.31795 | -71.91235 | 34061 ft | 450 kts | 297° |
| 2026-05-03 20:16 | 22.34858 | -71.97138 | 34062 ft | 450 kts | 297° |
| 2026-05-03 20:16 | 22.37922 | -72.03056 | 34059 ft | 450 kts | 297° |
| 2026-05-03 20:17 | 22.40973 | -72.08966 | 34065 ft | 450 kts | 297° |
| 2026-05-03 20:17 | 22.43999 | -72.14839 | 34063 ft | 450 kts | 297° |
| 2026-05-03 20:18 | 22.47046 | -72.20752 | 34060 ft | 450 kts | 297° |
| 2026-05-03 20:18 | 22.50082 | -72.26675 | 34068 ft | 450 kts | 297° |
| 2026-05-03 20:19 | 22.53121 | -72.32584 | 34071 ft | 448 kts | 297° |
| 2026-05-03 20:19 | 22.56150 | -72.38465 | 34075 ft | 446 kts | 297° |
| 2026-05-03 20:20 | 22.59157 | -72.44317 | 34077 ft | 443 kts | 296° |
| 2026-05-03 20:20 | 22.62142 | -72.50145 | 34071 ft | 442 kts | 296° |
| 2026-05-03 20:21 | 22.65124 | -72.55968 | 34069 ft | 441 kts | 296° |
| 2026-05-03 20:21 | 22.68071 | -72.61737 | 34064 ft | 440 kts | 296° |
| 2026-05-03 20:22 | 22.71027 | -72.67541 | 34060 ft | 439 kts | 296° |
| 2026-05-03 20:22 | 22.73981 | -72.73343 | 34065 ft | 439 kts | 296° |
| 2026-05-03 20:23 | 22.76916 | -72.79103 | 34041 ft | 439 kts | 296° |
| 2026-05-03 20:23 | 22.79871 | -72.84915 | 34029 ft | 441 kts | 296° |
| 2026-05-03 20:24 | 22.82827 | -72.90751 | 34032 ft | 442 kts | 296° |
| 2026-05-03 20:24 | 22.85791 | -72.96597 | 34038 ft | 443 kts | 296° |
| 2026-05-03 20:25 | 22.88758 | -73.02459 | 34053 ft | 443 kts | 296° |
| 2026-05-03 20:25 | 22.91705 | -73.08293 | 34062 ft | 443 kts | 296° |
| 2026-05-03 20:26 | 22.94665 | -73.14157 | 34062 ft | 443 kts | 296° |
| 2026-05-03 20:26 | 22.97630 | -73.20030 | 34057 ft | 443 kts | 296° |
| 2026-05-03 20:27 | 23.00589 | -73.25899 | 34072 ft | 442 kts | 296° |
| 2026-05-03 20:27 | 23.03542 | -73.31765 | 34066 ft | 442 kts | 296° |
| 2026-05-03 20:28 | 23.06474 | -73.37609 | 34053 ft | 442 kts | 296° |
| 2026-05-03 20:28 | 23.09421 | -73.43479 | 34055 ft | 443 kts | 296° |
| 2026-05-03 20:29 | 23.12372 | -73.49352 | 34057 ft | 443 kts | 296° |
| 2026-05-03 20:29 | 23.15317 | -73.55241 | 34055 ft | 443 kts | 295° |
| 2026-05-03 20:30 | 23.18263 | -73.61132 | 34056 ft | 442 kts | 295° |
| 2026-05-03 20:30 | 23.21203 | -73.67006 | 34056 ft | 442 kts | 295° |
| 2026-05-03 20:31 | 23.24137 | -73.72874 | 34061 ft | 442 kts | 295° |
| 2026-05-03 20:31 | 23.27061 | -73.78747 | 34064 ft | 441 kts | 295° |
| 2026-05-03 20:32 | 23.29979 | -73.84625 | 34060 ft | 441 kts | 295° |
| 2026-05-03 20:32 | 23.32875 | -73.90464 | 34062 ft | 441 kts | 295° |
| 2026-05-03 20:33 | 23.35791 | -73.96336 | 34064 ft | 441 kts | 295° |
| 2026-05-03 20:33 | 23.38704 | -74.02209 | 34064 ft | 441 kts | 295° |
| 2026-05-03 20:34 | 23.41617 | -74.08077 | 34064 ft | 440 kts | 295° |
| 2026-05-03 20:34 | 23.44528 | -74.13939 | 34062 ft | 440 kts | 295° |
| 2026-05-03 20:35 | 23.47433 | -74.19805 | 34067 ft | 440 kts | 295° |
| 2026-05-03 20:35 | 23.50322 | -74.25680 | 34070 ft | 440 kts | 295° |
| 2026-05-03 20:36 | 23.53209 | -74.31548 | 34067 ft | 439 kts | 295° |
| 2026-05-03 20:36 | 23.56094 | -74.37403 | 34066 ft | 438 kts | 295° |
| 2026-05-03 20:37 | 23.58976 | -74.43257 | 34066 ft | 438 kts | 295° |
| 2026-05-03 20:37 | 23.61849 | -74.49110 | 34067 ft | 437 kts | 295° |
| 2026-05-03 20:38 | 23.64725 | -74.54958 | 34064 ft | 437 kts | 295° |
| 2026-05-03 20:38 | 23.67109 | -74.59813 | 34064 ft | 436 kts | 294° |
| 2026-05-03 20:39 | 23.69962 | -74.65645 | 34067 ft | 435 kts | 295° |
| 2026-05-03 20:39 | 23.72814 | -74.71472 | 34063 ft | 435 kts | 294° |
| 2026-05-03 20:40 | 23.75651 | -74.77293 | 34062 ft | 434 kts | 294° |
| 2026-05-03 20:40 | 23.78490 | -74.83109 | 34058 ft | 434 kts | 294° |
| 2026-05-03 20:41 | 23.81327 | -74.88928 | 34062 ft | 434 kts | 294° |
| 2026-05-03 20:41 | 23.84160 | -74.94741 | 34061 ft | 433 kts | 294° |
| 2026-05-03 20:42 | 23.86982 | -75.00558 | 34057 ft | 433 kts | 294° |
| 2026-05-03 20:42 | 23.89803 | -75.06372 | 34057 ft | 432 kts | 294° |
| 2026-05-03 20:43 | 23.92617 | -75.12175 | 34057 ft | 432 kts | 294° |
| 2026-05-03 20:43 | 23.95429 | -75.17976 | 34053 ft | 432 kts | 294° |
| 2026-05-03 20:44 | 23.98238 | -75.23779 | 34055 ft | 431 kts | 294° |
| 2026-05-03 20:44 | 24.01044 | -75.29581 | 34048 ft | 431 kts | 294° |
| 2026-05-03 20:45 | 24.03847 | -75.35384 | 34047 ft | 432 kts | 294° |
| 2026-05-03 20:45 | 24.06653 | -75.41193 | 34046 ft | 432 kts | 294° |
| 2026-05-03 20:46 | 24.09452 | -75.47012 | 34048 ft | 432 kts | 294° |
| 2026-05-03 20:46 | 24.12227 | -75.52800 | 34050 ft | 432 kts | 294° |
| 2026-05-03 20:47 | 24.15017 | -75.58628 | 34052 ft | 432 kts | 294° |
| 2026-05-03 20:47 | 24.17818 | -75.64452 | 34049 ft | 432 kts | 294° |
| 2026-05-03 20:48 | 24.20614 | -75.70279 | 34051 ft | 432 kts | 294° |
| 2026-05-03 20:48 | 24.23403 | -75.76117 | 34054 ft | 432 kts | 294° |
| 2026-05-03 20:49 | 24.26184 | -75.81944 | 34053 ft | 432 kts | 294° |
| 2026-05-03 20:49 | 24.28976 | -75.87769 | 34056 ft | 431 kts | 294° |
| 2026-05-03 20:50 | 24.31753 | -75.93597 | 34052 ft | 431 kts | 294° |
| 2026-05-03 20:50 | 24.34524 | -75.99428 | 34050 ft | 431 kts | 294° |
| 2026-05-03 20:51 | 24.37289 | -76.05250 | 34054 ft | 430 kts | 294° |
| 2026-05-03 20:51 | 24.40042 | -76.11052 | 34063 ft | 427 kts | 294° |
| 2026-05-03 20:52 | 24.42778 | -76.16812 | 34061 ft | 424 kts | 294° |
| 2026-05-03 20:52 | 24.45501 | -76.22544 | 34058 ft | 423 kts | 293° |
| 2026-05-03 20:53 | 24.48211 | -76.28258 | 34058 ft | 421 kts | 293° |
| 2026-05-03 20:53 | 24.50907 | -76.33963 | 34054 ft | 420 kts | 293° |
| 2026-05-03 20:54 | 24.53595 | -76.39661 | 34054 ft | 420 kts | 293° |
| 2026-05-03 20:54 | 24.57616 | -76.48191 | 34050 ft | 419 kts | 293° |
| 2026-05-03 20:55 | 24.60291 | -76.53876 | 34051 ft | 419 kts | 293° |
| 2026-05-03 20:55 | 24.62963 | -76.59562 | 34050 ft | 418 kts | 292° |
| 2026-05-03 20:56 | 24.65614 | -76.65214 | 34045 ft | 418 kts | 292° |
| 2026-05-03 20:56 | 24.68277 | -76.70902 | 34040 ft | 417 kts | 292° |
| 2026-05-03 20:57 | 24.70935 | -76.76581 | 34044 ft | 417 kts | 292° |
| 2026-05-03 20:57 | 24.73569 | -76.82218 | 34044 ft | 416 kts | 292° |
| 2026-05-03 20:58 | 24.76218 | -76.87883 | 34045 ft | 416 kts | 292° |
| 2026-05-03 20:58 | 24.78869 | -76.93546 | 34045 ft | 416 kts | 292° |
| 2026-05-03 20:59 | 24.81509 | -76.99209 | 34043 ft | 415 kts | 292° |
| 2026-05-03 20:59 | 24.84142 | -77.04876 | 34045 ft | 415 kts | 292° |
| 2026-05-03 21:00 | 24.86328 | -77.09583 | 34047 ft | 415 kts | 292° |
| 2026-05-03 21:00 | 24.89388 | -77.16173 | 34044 ft | 415 kts | 292° |
| 2026-05-03 21:01 | 24.92013 | -77.21839 | 34045 ft | 415 kts | 292° |
| 2026-05-03 21:01 | 24.94636 | -77.27507 | 34052 ft | 415 kts | 292° |
| 2026-05-03 21:02 | 24.97259 | -77.33172 | 34062 ft | 415 kts | 292° |
| 2026-05-03 21:02 | 24.99876 | -77.38845 | 34063 ft | 415 kts | 292° |
| 2026-05-03 21:03 | 25.02477 | -77.44489 | 34066 ft | 414 kts | 291° |
| 2026-05-03 21:03 | 25.04823 | -77.50257 | 34060 ft | 411 kts | 288° |
| 2026-05-03 21:04 | 25.06932 | -77.56102 | 34061 ft | 410 kts | 287° |
| 2026-05-03 21:04 | 25.09047 | -77.61965 | 34060 ft | 411 kts | 288° |
| 2026-05-03 21:05 | 25.11211 | -77.67798 | 34055 ft | 411 kts | 288° |
| 2026-05-03 21:05 | 25.13394 | -77.73629 | 34055 ft | 411 kts | 288° |
| 2026-05-03 21:06 | 25.15578 | -77.79468 | 34052 ft | 411 kts | 288° |
| 2026-05-03 21:06 | 25.17742 | -77.85272 | 34041 ft | 411 kts | 288° |
| 2026-05-03 21:07 | 25.19919 | -77.91114 | 34040 ft | 411 kts | 288° |
| 2026-05-03 21:07 | 25.22087 | -77.96957 | 34041 ft | 411 kts | 288° |
| 2026-05-03 21:08 | 25.24252 | -78.02802 | 34045 ft | 411 kts | 288° |
| 2026-05-03 21:08 | 25.26408 | -78.08624 | 34039 ft | 411 kts | 288° |
| 2026-05-03 21:09 | 25.28568 | -78.14478 | 34037 ft | 411 kts | 288° |
| 2026-05-03 21:09 | 25.30738 | -78.20344 | 33991 ft | 411 kts | 288° |
| 2026-05-03 21:10 | 25.31869 | -78.23253 | 33165 ft | 416 kts | 289° |
| 2026-05-03 21:10 | 25.33053 | -78.26199 | 32260 ft | 422 kts | 289° |
| 2026-05-03 21:10 | 25.34269 | -78.29174 | 31423 ft | 426 kts | 289° |
| 2026-05-03 21:10 | 25.35502 | -78.32181 | 30606 ft | 430 kts | 289° |
| 2026-05-03 21:11 | 25.36732 | -78.35208 | 29759 ft | 434 kts | 289° |
| 2026-05-03 21:11 | 25.37934 | -78.38179 | 29454 ft | 419 kts | 289° |
| 2026-05-03 21:11 | 25.39102 | -78.41071 | 29007 ft | 405 kts | 289° |
| 2026-05-03 21:11 | 25.40232 | -78.43883 | 28356 ft | 396 kts | 289° |
| 2026-05-03 21:12 | 25.41339 | -78.46667 | 27837 ft | 393 kts | 289° |
| 2026-05-03 21:12 | 25.42414 | -78.49432 | 27364 ft | 388 kts | 288° |
| 2026-05-03 21:12 | 25.43451 | -78.52144 | 27127 ft | 378 kts | 288° |
| 2026-05-03 21:12 | 25.44465 | -78.54815 | 26755 ft | 373 kts | 288° |
| 2026-05-03 21:13 | 25.45464 | -78.57454 | 26331 ft | 370 kts | 288° |
| 2026-05-03 21:13 | 25.46457 | -78.60074 | 25917 ft | 368 kts | 288° |
| 2026-05-03 21:13 | 25.47435 | -78.62651 | 25493 ft | 366 kts | 288° |
| 2026-05-03 21:13 | 25.48426 | -78.65238 | 25097 ft | 364 kts | 288° |
| 2026-05-03 21:14 | 25.49415 | -78.67812 | 24705 ft | 362 kts | 288° |
| 2026-05-03 21:14 | 25.50396 | -78.70369 | 24300 ft | 360 kts | 288° |
| 2026-05-03 21:14 | 25.51371 | -78.72914 | 23902 ft | 358 kts | 288° |
| 2026-05-03 21:14 | 25.52343 | -78.75452 | 23489 ft | 356 kts | 288° |
| 2026-05-03 21:15 | 25.53308 | -78.77974 | 23015 ft | 354 kts | 289° |
| 2026-05-03 21:15 | 25.54265 | -78.80478 | 22526 ft | 352 kts | 289° |
| 2026-05-03 21:15 | 25.55216 | -78.82970 | 22074 ft | 350 kts | 289° |
| 2026-05-03 21:15 | 25.56165 | -78.85455 | 21607 ft | 348 kts | 289° |
| 2026-05-03 21:16 | 25.57100 | -78.87909 | 21142 ft | 347 kts | 289° |
| 2026-05-03 21:16 | 25.58029 | -78.90345 | 20683 ft | 345 kts | 289° |
| 2026-05-03 21:16 | 25.58958 | -78.92788 | 20225 ft | 343 kts | 289° |
| 2026-05-03 21:16 | 25.59884 | -78.95222 | 19751 ft | 342 kts | 289° |
| 2026-05-03 21:17 | 25.60807 | -78.97653 | 19266 ft | 342 kts | 289° |
| 2026-05-03 21:17 | 25.61431 | -78.99301 | 18947 ft | 342 kts | 289° |
| 2026-05-03 21:17 | 25.62651 | -79.02523 | 18320 ft | 342 kts | 289° |
| 2026-05-03 21:17 | 25.63573 | -79.04946 | 17779 ft | 340 kts | 289° |
| 2026-05-03 21:18 | 25.64484 | -79.07351 | 17248 ft | 336 kts | 289° |
| 2026-05-03 21:18 | 25.65380 | -79.09733 | 16709 ft | 333 kts | 289° |
| 2026-05-03 21:18 | 25.66264 | -79.12090 | 16195 ft | 329 kts | 289° |
| 2026-05-03 21:18 | 25.67143 | -79.14437 | 15680 ft | 327 kts | 289° |
| 2026-05-03 21:19 | 25.68010 | -79.16753 | 15188 ft | 324 kts | 289° |
| 2026-05-03 21:19 | 25.68862 | -79.19028 | 14693 ft | 322 kts | 290° |
| 2026-05-03 21:19 | 25.69720 | -79.21316 | 14215 ft | 320 kts | 290° |
| 2026-05-03 21:19 | 25.70573 | -79.23594 | 13715 ft | 318 kts | 290° |
| 2026-05-03 21:20 | 25.71416 | -79.25852 | 13187 ft | 316 kts | 290° |
| 2026-05-03 21:20 | 25.72253 | -79.28095 | 12656 ft | 313 kts | 290° |
| 2026-05-03 21:20 | 25.73084 | -79.30323 | 12139 ft | 311 kts | 290° |
| 2026-05-03 21:20 | 25.73628 | -79.31794 | 11806 ft | 310 kts | 290° |
| 2026-05-03 21:21 | 25.74443 | -79.34009 | 11283 ft | 307 kts | 290° |
| 2026-05-03 21:21 | 25.75243 | -79.36188 | 10792 ft | 303 kts | 290° |
| 2026-05-03 21:21 | 25.76034 | -79.38344 | 10293 ft | 299 kts | 290° |
| 2026-05-03 21:21 | 25.77066 | -79.41159 | 9628 ft | 295 kts | 290° |
| 2026-05-03 21:22 | 25.77579 | -79.42558 | 9513 ft | 283 kts | 290° |
| 2026-05-03 21:22 | 25.78304 | -79.44536 | 9160 ft | 273 kts | 290° |
| 2026-05-03 21:22 | 25.79012 | -79.46473 | 8638 ft | 270 kts | 290° |
| 2026-05-03 21:22 | 25.79714 | -79.48399 | 8108 ft | 268 kts | 290° |
| 2026-05-03 21:23 | 25.80413 | -79.50316 | 7566 ft | 267 kts | 290° |
| 2026-05-03 21:23 | 25.81110 | -79.52220 | 7062 ft | 266 kts | 290° |
| 2026-05-03 21:23 | 25.81797 | -79.54097 | 6555 ft | 265 kts | 290° |
| 2026-05-03 21:23 | 25.82488 | -79.55988 | 6100 ft | 262 kts | 290° |
| 2026-05-03 21:24 | 25.83174 | -79.57865 | 5991 ft | 263 kts | 290° |
| 2026-05-03 21:24 | 25.83865 | -79.59761 | 6002 ft | 265 kts | 290° |
| 2026-05-03 21:24 | 25.84564 | -79.61654 | 6005 ft | 265 kts | 290° |
| 2026-05-03 21:24 | 25.85275 | -79.63546 | 6007 ft | 265 kts | 290° |
| 2026-05-03 21:25 | 25.86004 | -79.65430 | 6003 ft | 265 kts | 292° |
| 2026-05-03 21:25 | 25.86784 | -79.67284 | 6003 ft | 265 kts | 293° |
| 2026-05-03 21:25 | 25.87588 | -79.69131 | 6005 ft | 265 kts | 294° |
| 2026-05-03 21:25 | 25.88399 | -79.70976 | 6003 ft | 265 kts | 294° |
| 2026-05-03 21:26 | 25.89208 | -79.72823 | 6004 ft | 265 kts | 294° |
| 2026-05-03 21:26 | 25.90022 | -79.74701 | 6014 ft | 282 kts | 293° |
| 2026-05-03 21:26 | 25.90853 | -79.76640 | 5996 ft | 275 kts | 293° |
| 2026-05-03 21:26 | 25.91658 | -79.78519 | 6001 ft | 266 kts | 293° |
| 2026-05-03 21:27 | 25.92451 | -79.80374 | 6003 ft | 265 kts | 293° |
| 2026-05-03 21:27 | 25.93236 | -79.82218 | 6002 ft | 264 kts | 293° |
| 2026-05-03 21:27 | 25.94021 | -79.84066 | 6005 ft | 264 kts | 293° |
| 2026-05-03 21:27 | 25.94806 | -79.85908 | 6006 ft | 264 kts | 292° |
| 2026-05-03 21:28 | 25.95592 | -79.87752 | 6007 ft | 264 kts | 293° |
| 2026-05-03 21:28 | 25.96375 | -79.89593 | 6005 ft | 263 kts | 293° |
| 2026-05-03 21:28 | 25.97158 | -79.91437 | 6005 ft | 263 kts | 293° |
| 2026-05-03 21:28 | 25.97938 | -79.93277 | 6006 ft | 263 kts | 293° |
| 2026-05-03 21:29 | 25.98767 | -79.95094 | 6008 ft | 265 kts | 300° |
| 2026-05-03 21:29 | 25.99941 | -79.96692 | 6015 ft | 267 kts | 309° |
| 2026-05-03 21:29 | 26.01185 | -79.98217 | 6008 ft | 266 kts | 309° |
| 2026-05-03 21:29 | 26.02429 | -79.99748 | 6012 ft | 267 kts | 309° |
| 2026-05-03 21:30 | 26.03668 | -80.01277 | 6013 ft | 266 kts | 309° |
| 2026-05-03 21:30 | 26.04892 | -80.02792 | 6013 ft | 266 kts | 309° |
| 2026-05-03 21:30 | 26.06133 | -80.04325 | 6017 ft | 266 kts | 308° |
| 2026-05-03 21:30 | 26.07367 | -80.05852 | 6011 ft | 261 kts | 309° |
| 2026-05-03 21:31 | 26.08548 | -80.07311 | 6008 ft | 246 kts | 309° |
| 2026-05-03 21:31 | 26.09661 | -80.08683 | 6009 ft | 230 kts | 308° |
| 2026-05-03 21:31 | 26.10717 | -80.09985 | 6015 ft | 225 kts | 309° |
| 2026-05-03 21:31 | 26.11765 | -80.11280 | 6015 ft | 224 kts | 308° |
| 2026-05-03 21:32 | 26.12796 | -80.12557 | 6015 ft | 224 kts | 309° |
| 2026-05-03 21:32 | 26.13819 | -80.13861 | 5963 ft | 222 kts | 303° |
| 2026-05-03 21:32 | 26.14575 | -80.15333 | 5696 ft | 218 kts | 289° |
| 2026-05-03 21:32 | 26.14972 | -80.16949 | 5313 ft | 216 kts | 276° |
| 2026-05-03 21:33 | 26.15036 | -80.18624 | 4927 ft | 217 kts | 269° |
| 2026-05-03 21:33 | 26.15037 | -80.20303 | 4556 ft | 217 kts | 270° |
| 2026-05-03 21:33 | 26.15044 | -80.21987 | 4189 ft | 217 kts | 269° |
| 2026-05-03 21:33 | 26.15052 | -80.23667 | 3854 ft | 216 kts | 270° |
| 2026-05-03 21:34 | 26.15060 | -80.25340 | 3545 ft | 216 kts | 270° |
| 2026-05-03 21:34 | 26.15078 | -80.27016 | 3379 ft | 216 kts | 271° |
| 2026-05-03 21:34 | 26.15097 | -80.28693 | 3082 ft | 217 kts | 270° |
| 2026-05-03 21:34 | 26.15105 | -80.30338 | 3010 ft | 216 kts | 269° |
| 2026-05-03 21:35 | 26.15102 | -80.32025 | 3016 ft | 219 kts | 269° |
| 2026-05-03 21:35 | 26.15088 | -80.33735 | 3013 ft | 222 kts | 269° |
| 2026-05-03 21:35 | 26.15064 | -80.35462 | 3010 ft | 222 kts | 270° |
| 2026-05-03 21:35 | 26.15035 | -80.37178 | 3009 ft | 220 kts | 268° |
| 2026-05-03 21:36 | 26.15004 | -80.38883 | 3023 ft | 223 kts | 268° |
| 2026-05-03 21:36 | 26.14969 | -80.40630 | 3017 ft | 227 kts | 268° |
| 2026-05-03 21:36 | 26.14931 | -80.42404 | 3017 ft | 230 kts | 269° |
| 2026-05-03 21:36 | 26.14895 | -80.44164 | 2986 ft | 225 kts | 270° |
| 2026-05-03 21:37 | 26.14859 | -80.45879 | 3000 ft | 223 kts | 270° |
| 2026-05-03 21:37 | 26.14823 | -80.47565 | 2980 ft | 208 kts | 269° |
| 2026-05-03 21:37 | 26.14789 | -80.49134 | 3000 ft | 197 kts | 269° |
| 2026-05-03 21:37 | 26.14576 | -80.50607 | 3025 ft | 192 kts | 245° |
| 2026-05-03 21:38 | 26.13648 | -80.51632 | 3018 ft | 192 kts | 205° |
| 2026-05-03 21:38 | 26.12336 | -80.51862 | 3015 ft | 193 kts | 181° |
| 2026-05-03 21:38 | 26.11020 | -80.51626 | 3006 ft | 194 kts | 154° |
| 2026-05-03 21:38 | 26.10067 | -80.50576 | 3012 ft | 196 kts | 120° |
| 2026-05-03 21:39 | 26.09475 | -80.49205 | 3012 ft | 197 kts | 114° |
| 2026-05-03 21:39 | 26.08941 | -80.47803 | 3006 ft | 196 kts | 113° |
| 2026-05-03 21:39 | 26.08423 | -80.46412 | 3007 ft | 198 kts | 112° |
| 2026-05-03 21:39 | 26.07959 | -80.44975 | 3004 ft | 198 kts | 101° |
| 2026-05-03 21:40 | 26.07836 | -80.43450 | 3006 ft | 198 kts | 92° |
| 2026-05-03 21:40 | 26.07812 | -80.41912 | 3005 ft | 199 kts | 90° |
| 2026-05-03 21:40 | 26.07804 | -80.40378 | 3005 ft | 199 kts | 90° |
| 2026-05-03 21:40 | 26.07798 | -80.38835 | 2999 ft | 198 kts | 89° |
| 2026-05-03 21:41 | 26.07792 | -80.37306 | 3005 ft | 198 kts | 90° |
| 2026-05-03 21:41 | 26.07786 | -80.35774 | 3004 ft | 198 kts | 89° |
| 2026-05-03 21:41 | 26.07779 | -80.34240 | 3001 ft | 198 kts | 90° |
| 2026-05-03 21:41 | 26.07773 | -80.32701 | 2858 ft | 200 kts | 90° |
| 2026-05-03 21:42 | 26.07766 | -80.31183 | 2561 ft | 196 kts | 90° |
| 2026-05-03 21:42 | 26.07759 | -80.29661 | 2313 ft | 193 kts | 89° |
| 2026-05-03 21:42 | 26.07753 | -80.28198 | 2051 ft | 191 kts | 89° |
| 2026-05-03 21:42 | 26.07746 | -80.26703 | 1801 ft | 196 kts | 89° |
| 2026-05-03 21:43 | 26.07738 | -80.25224 | 1549 ft | 177 kts | 89° |
| 2026-05-03 21:43 | 26.07731 | -80.23923 | 1321 ft | 161 kts | 88° |
| 2026-05-03 21:43 | 26.07725 | -80.22704 | 1127 ft | 153 kts | 88° |
| 2026-05-03 21:43 | 26.07722 | -80.21529 | 923 ft | 151 kts | 88° |
| 2026-05-03 21:44 | 26.07717 | -80.20369 | 734 ft | 150 kts | 87° |
| 2026-05-03 21:44 | 26.07707 | -80.19211 | 561 ft | 148 kts | 87° |
| 2026-05-03 21:44 | 26.07697 | -80.18075 | 369 ft | 147 kts | 88° |
| 2026-05-03 21:44 | 26.07691 | -80.16948 | 146 ft | 145 kts | 85° |
| 2026-05-03 21:45 | 26.07691 | -80.15831 | 28 ft | 139 kts | 87° |
| 2026-05-03 21:45 | 26.07686 | -80.14973 | 17 ft | 73 kts | 90° |
| 2026-05-03 21:45 | 26.07662 | -80.14691 | 19 ft | 23 kts | 107° |
| 2026-05-03 21:45 | 26.07590 | -80.14534 | 18 ft | 21 kts | 115° |
| 2026-05-03 21:46 | 26.07558 | -80.14394 | 17 ft | 15 kts | 91° |
| 2026-05-03 21:46 | 26.07558 | -80.14359 | 17 ft | 3 kts | 90° |
| 2026-05-03 21:46 | 26.07557 | -80.14348 | 17 ft | 0 kts | 90° |
| 2026-05-03 21:49 | 26.07557 | -80.14340 | 17 ft | 4 kts | 90° |
| 2026-05-03 21:49 | 26.07555 | -80.14274 | 17 ft | 11 kts | 102° |
| 2026-05-03 21:49 | 26.07502 | -80.14249 | 16 ft | 10 kts | 223° |
| 2026-05-03 21:49 | 26.07481 | -80.14322 | 16 ft | 10 kts | 238° |
| 2026-05-03 21:50 | 26.07423 | -80.14343 | 16 ft | 9 kts | 180° |
| 2026-05-03 21:50 | 26.07404 | -80.14343 | 16 ft | 1 kts | 180° |
| 2026-05-03 21:50 | 26.07391 | -80.14343 | 16 ft | 3 kts | 180° |
| 2026-05-03 21:50 | 26.07389 | -80.14343 | 16 ft | 0 kts | 180° |